Timeline UpdatesTrip UpdatesNews PostsPvt Posts♥♥Travel TipsAdmin PostsConv PostsFollowed PostsChat RequestsBlog PostsPNR Posts

Disclaimer
Search
 
 
Fri Nov 21, 2014 14:04:32 ISTHomeTrainsΣChainsAtlasPNRForumGalleryNewsFAQTripsMembersLoginFeedback
No Recent News for this Train
Other Trains in the News **new
Latest...
.
Tue Sep 02, 2014 (11:54AM)
⇐ Return Journey: Train# 18478

18477/Kalinga Utkal Express

Time-Table HAS CHANGED.
Sep 02 2014 (11:54AM)
Change Departure Station:
Change Arrival Station:
Post a Train Travel TipPost a Train Travel Tip **new
Post a Comment/Question/Picture/VideoPost a Comment/Question/Picture/Video
Pantry/Catering
✓ Pantry Car Avbl
✓ Catering Avbl
RSA - Rake Sharing
Rake/Coach Composition
Coach Composition:ENG-SLR-GS-GS-A1-B2-B1-S12-S11-S10-PC-S9-S8-S7-S6-S5-S4-S3-S2-S1-GS-SLR. By DJ 132 Entry# 701081
Loco
PURI-NZM: TKD WAP-7 NZM-HW: LDH WDM-3A
News    PNR    Forum    Time-Table    Availability    Fare Chart    Map    Arr/Dep History    Trips    Gallery    ΣChains    X/O    Timeline    
Travel Time: 48h 0m    73 halts    Distance: 2372 km    Avg Speed: 49 km/hr
Type: Mail/Express
Zone: ECoR/East Coast
Departs @ 20:55 (Avg 6m late)
Platform# 5
SMTWTFS
Puri/PURI 
Arrives @ 20:55 +2 nights (Avg 30m late)
Platform# 2
SMTWTFS
Haridwar Junction/HW 

73 halts. 336 intermediate Stations between Puri and Haridwar Junction

Show ALL intermediate Stations  Show Old Time-Table

#TrkCodeStation NameX/OArrivesAvgDepartsAvgHaltPFDay#KmSpeedElevZoneAddress
1%==%PURIPuri (5)»  -20:55+6510.04912mECoRPuri, Odisha
2%==%SILSakhi Gopal (3)  21:15+821:16+81m--116.44810mECoRPuri, Odisha
3/==/KURKhurda Road Junction (7)X  21:50+721:55+95m--143.95725mECoRKhordha, Odisha
4/==/BBSBhubaneswar (4)  22:20 22:15+1522:25 22:20+185m4162.84840mECoRBhubaneshwar, Odisha
5%==/CTCCuttack Junction (5)  22:50 22:55+1722:55 23:00+185m1190.78628mECoRCuttack, Odisha
6/==/JJKRJajpur Keonjhar Road (4)  23:51 23:50+2223:52+221 2m--1162.74036mECoRJajpur, Odisha
7/==/BHCBhadrak (4)X  00:58+301:00+62m--2206.48723mECoRBhadrak, Odisha
8/==/SOROSoroX  01:21 01:20+1001:22+101 2m--2235.47214mSERSoro, Odisha
9/==/BLSBalasore (4)X  01:50+1001:55+105m--2268.87319mSERBalasore, Odisha
10/==/BTSBasta (3)X  02:19 02:18+1102:20+121 2m--2296.87316mSERBasta, Odisha
11/==/JERJaleswar (4)X  02:37 02:36+1302:38+171 2m--2316.38413mSERJaleswar, Odisha
12/==/HIJHijli (2)  03:25 03:24+1303:26+201 2m--2381.05048mSERdist - paschim medinipur, West Bengal
13/==/CKUChakulia (4)  04:47+604:48+91m--2448.883126mSERChakulia, Jharkhand
14/==/GTSGhatsila (3)X  05:11 05:10+1005:12+101 2m--2479.445103mSEREast Singhbhum, Jharkhand
15/==/TATATatanagar Junction (5)  06:05 06:00+606:10+105 10m32515.660164mSER91-657-2423026, Jharkhand
16/==/SINISini Junction (3)X  06:37+1306:38 06:39+131 2m--2542.554182mSERNational Highway 33, Jharkhand
17/==/RKSNRajkharsawan Junction (3)  06:54 06:56+1306:55 06:57+141m--2557.852189mSERSaraikela Kharswan District, Jharkhand
18/==/CKPChakradharpur (3)X  07:20+907:30+1010m--2577.884235mSERChakradharpur (West Singhbhum), Jharkhand
19/==/GOLGoilkera (2)  07:54+1507:55+161m--2611.655333mSERGoilkera, Jharkhand
20/==/MOUManoharpur  08:25+1308:26+151m--2639.170228mSERManoharpur, Jharkhand
21/==/BZRBisra  08:50 08:48+1608:51 08:49+171m--2664.851224mSERSundargarh, Odisha
22/==/BNDMBondamunda (2)  08:55 08:58+1708:56 08:59+181m--2672.424213mSERRourkela, Odisha
23/--/ROURourkela Junction (5)X  09:15+1409:30+1515m12678.966198mSERRourkela, Odisha
24/==/GPRaj Gangpur (3)  09:57+2109:58+221m12708.774237mSERRaj Ganpur, Odisha
25/==/BMBBamra (3)X  10:26+2310:27+241m--2743.335259mSERBamra PH : 06642-229268, Odisha
26/==/JSGJharsuguda Junction (5)X  11:30+511:40+910m--2779.864236mSERJharsuguda, Odisha
27/==/BRJNBrajrajnagarX  11:49 11:51+1111:50 11:53+121 2m--2791.567212mSECRBrajrajnagar, Odisha
28/==/BPHBelpahar (2)X  11:59 12:01+1412:00 12:03+171 2m--2800.483235mSECRBelpahar, Odisha
29/==/RIGRaigarh (3)X  12:36 12:40+1912:41 12:45+195m22851.578220mSECRRaigarh, Chhattisgarh
30/==/KHSKharsia  13:04 13:11+2913:05 13:13+281 2m--2885.471 SECRNational Highway 200, Chhattisgarh
31/==/SKTSakti (4)  13:18 13:26+3113:19 13:28+311 2m--2900.874237mSECRJanjgir-Champa, Chhattisgarh
32/==/BUABaradwar  13:31 13:40+3313:32 13:42+351 2m--2915.752 SECRJanjgir-Champa, Chhattisgarh
33/==/CPHChampa Junction (3)  13:49 14:00+3713:54 14:05+355m22931.259264mSECRNational Highway 200 (07819-245767), Chhattisgarh
34/==/NIANaila (3)  14:04 14:16+3514:05 14:18+351 2m--2942.175273mSECRJanjgir, Chhattisgarh
35/==/AKTAkaltara (4)  14:18 14:30+3514:19 14:32+341 2m--2957.028284mSECRDist. Janjgir Champa, Chhattisgarh
36/==/BSPBilaspur Junction (8)  15:10 15:30+1115:25 15:45+1615m22984.280271mSECRBilaspur, Chhattisgarh
37/==/KGBKargi Road (3)  15:57 16:09+3315:58 16:11+331 2m--21016.356327mSECRBilaspur, Chhattisgarh
38%==%BIGBelgahna  16:18 16:28+3516:19 16:30+351 2m--21032.146327mSECRBilaspur, Chhattisgarh
39%==%PNDPendra Road (3)  17:25 17:40+3717:30 17:45+375m921085.861620mSECRBilaspur district, Chhattisgarh
40%==%APRAnuppur Junction (4)X  18:20 18:35+5118:25 18:40+515m--21136.985487mSECRAnuppur, Madhya Pradesh
41/==/AALAmlaiX  18:35 18:49+5518:36 18:51+551 2m--21149.658495mSECRAnuppur, Madhya Pradesh
42/==/BUHBurhar  18:46 19:00+5618:47 19:02+561 2m--21158.335494mSECRBurhar, Madhya Pradesh
43/==/SDLShahdol (3)X  19:25 19:35+4219:30 19:40+425m--21177.866466mSECR, Madhya Pradesh
44/==/BRSBirsinghpur (3)  20:05 20:14+4520:06 20:16+451 2m--21215.254461mSECRPali, Madhya Pradesh
45/==/NRZBNowrozabadX  20:15 20:24+4520:16 20:26+451 2m--21222.452458mSECRNational Highway 78, Madhya Pradesh
46/==/UMRUmaria (3)  20:45 20:52+3920:50 20:57+385m221245.154469mSECRUmaria, Madhya Pradesh
47/==/CHDChandia Road (1)X  21:09 21:18+3421:10 21:20+351 2m121264.125406mSECRNational Highway 78, Madhya Pradesh
48/==/KMZKatni Murwara  22:55+2623:10+3215m--21303.970385mWCRMP 483504 ?, Madhya Pradesh
49/==/DMODamoh (2)X  00:43+2800:45+292m--31413.075365mWCRDamoh, Madhya Pradesh
50/==/PHAPatharia  01:05 01:06+3101:07 01:08+312m--31439.162382mWCRState Highway 14, Madhya Pradesh
51/==/SGOSaugor (2)X  01:57+3702:00+383m--31490.155519mWCRMP 470001Madhya pradesh, Madhya Pradesh
52/==/KYEKhurai (5)XO  02:58+2403:00+252m--31542.923439mWCRKhurai, Madhya Pradesh
53/==/MAKRMalkheri Junction (2)  04:05 03:45+1104:07 03:47+132m--31560.156421mWCRGuna, Madhya Pradesh
54/==/LARLalitpur (3)X  05:09 04:55+1705:10 04:57+191 2m331623.3114373mNCRLalitpur, Uttar Pradesh
55/==/TBTTalbahat (4)X  05:31 05:18+3005:33 05:20+302m331663.265314mNCRKhaniyadhana Station Rd, Madhya Pradesh
56/==/BABBabina (3)X  05:54 05:43+3105:55 05:45+311 2m131688.134285mNCRBabina, Uttar Pradesh
57/==/JHSJhansi Junction (7)  06:35 06:30+1906:43 06:40+238 10m431713.675259mNCRJhansi, Uttar Pradesh
58/==/DAADatia (2)  07:06 07:00+2807:07 07:02+311 2m--31738.676264mNCRDatia, Madhya Pradesh
59/==/DBADabra (3)  07:29 07:26+3407:30 07:28+401 2m131769.079 NCRDabra(District-Gwalior), Madhya Pradesh
60/==/GWLGwalior Junction (4)  08:35 08:00+1:0308:40 08:05+1:035m231811.334214mNCRGwalior, Madhya Pradesh
61/==/MRAMorena (3)  09:08 09:13+3109:09 09:15+321 2m231849.981176mNCRMorena, Madhya Pradesh
62/==/DHODholpur Junction (3)X  09:33 09:35+3809:34 09:37+391 2m131876.746177mNCRDholpur, Rajasthan
63/==/AGCAgra Cantt. (6)X  10:45+3610:53+418m331929.317174mNCRAgra, Uttar Pradesh
64/==/RKMRaja Ki Mandi (4)  11:03 11:07+4011:04 11:09+401 2m131933.369170mNCRAgra, Uttar Pradesh
65/==/MTJMathura Junction (10)X  11:47 11:52+4511:52 11:57+465m231983.064179mNCRMathura, Uttar Pradesh
66/==/FDBFaridabad (4)X  13:30 13:43+4013:31 13:45+421 2m232096.223206mNRold Faridabad, Haryana
67/==/NZMDelhi Hazrat Nizamuddin (7)XO14:05 14:40+2914:35 15:10+2830m132117.037209mNRNew Delhi 110013, Delhi NCT
68/==/GZBGhaziabad Junction (6)  15:11 15:48+3715:13 15:50+382m132140.445217mNRGhaziabad, Uttar Pradesh
69%==%MTCMeerut City Junction (6)X  15:55 16:53+3116:00 16:56+335 3m132187.637229mNRMeerut, Uttar Pradesh
70%--%MUTMeerut Cantt. (2) new halt!!  17:03+4017:05+402m--32191.972230mNRMeerut, Uttar Pradesh
71%--%MOZMuzaffarnagar (3)  16:52 17:48+2816:53 17:50+301 2m132243.245247mNRMuzaffarNagar, Uttar Pradesh
72%--%DBDDeoband (2)  18:11 18:22+1118:12 18:24+131 2m132267.252258mNRSaharanpur, Uttar Pradesh
73%--/TPZTapri Junction (2)  19:01 18:56+1819:02 18:58+181 2m232294.960274mNRTapri -Saharanpur, Uttar Pradesh
74/==/RKRoorkee (3)X  19:37 19:30+5419:38 19:35+521 5m332326.934264mNRRoorkee - 247667, Uttarakhand
75%--%HWHaridwar Junction (9)•  20:30 20:55+30-232371.7-294mNRHaridwar, Uttarakhand
Scroll to Top
Scroll to Bottom